sensor_id;sensor_type;location;lat;lon;timestamp;temperature;humidity
15341;DHT22;7770;52.158;5.372;2023-07-16T00:02:14;17.10;99.90
15341;DHT22;7770;52.158;5.372;2023-07-16T00:05:00;17.20;99.90
15341;DHT22;7770;52.158;5.372;2023-07-16T00:07:46;17.10;99.90
15341;DHT22;7770;52.158;5.372;2023-07-16T00:10:38;17.20;99.90
15341;DHT22;7770;52.158;5.372;2023-07-16T00:13:24;17.10;99.90
15341;DHT22;7770;52.158;5.372;2023-07-16T00:16:10;17.10;99.90
15341;DHT22;7770;52.158;5.372;2023-07-16T00:18:56;17.20;99.90
15341;DHT22;7770;52.158;5.372;2023-07-16T00:21:42;17.20;99.90
15341;DHT22;7770;52.158;5.372;2023-07-16T00:24:28;17.30;99.90
15341;DHT22;7770;52.158;5.372;2023-07-16T00:27:14;17.30;99.90
15341;DHT22;7770;52.158;5.372;2023-07-16T00:30:00;17.20;99.90
15341;DHT22;7770;52.158;5.372;2023-07-16T00:32:46;17.20;99.90
15341;DHT22;7770;52.158;5.372;2023-07-16T00:35:32;17.20;99.90
15341;DHT22;7770;52.158;5.372;2023-07-16T00:38:19;17.20;99.90
15341;DHT22;7770;52.158;5.372;2023-07-16T00:41:05;17.20;99.90
15341;DHT22;7770;52.158;5.372;2023-07-16T00:43:51;17.30;99.90
15341;DHT22;7770;52.158;5.372;2023-07-16T00:46:39;17.20;99.90
15341;DHT22;7770;52.158;5.372;2023-07-16T00:49:26;17.20;99.90
15341;DHT22;7770;52.158;5.372;2023-07-16T00:52:17;17.10;99.90
15341;DHT22;7770;52.158;5.372;2023-07-16T00:55:05;17.10;99.90
15341;DHT22;7770;52.158;5.372;2023-07-16T00:57:53;17.10;99.90
15341;DHT22;7770;52.158;5.372;2023-07-16T01:00:42;17.10;99.90
15341;DHT22;7770;52.158;5.372;2023-07-16T01:03:28;17.00;99.90
15341;DHT22;7770;52.158;5.372;2023-07-16T01:06:47;17.00;99.90
15341;DHT22;7770;52.158;5.372;2023-07-16T01:09:36;17.00;99.90
15341;DHT22;7770;52.158;5.372;2023-07-16T01:12:26;16.90;99.90
15341;DHT22;7770;52.158;5.372;2023-07-16T01:15:12;16.90;99.90
15341;DHT22;7770;52.158;5.372;2023-07-16T01:17:58;16.90;99.90
15341;DHT22;7770;52.158;5.372;2023-07-16T01:20:44;16.90;99.90
15341;DHT22;7770;52.158;5.372;2023-07-16T01:30:28;16.90;99.90
15341;DHT22;7770;52.158;5.372;2023-07-16T01:33:16;16.80;99.90
15341;DHT22;7770;52.158;5.372;2023-07-16T01:36:03;16.80;99.90
15341;DHT22;7770;52.158;5.372;2023-07-16T01:38:50;16.90;99.90
15341;DHT22;7770;52.158;5.372;2023-07-16T01:41:36;16.90;99.90
15341;DHT22;7770;52.158;5.372;2023-07-16T01:44:22;16.80;99.90
15341;DHT22;7770;52.158;5.372;2023-07-16T01:47:11;16.80;99.90
15341;DHT22;7770;52.158;5.372;2023-07-16T01:49:59;16.80;99.90
15341;DHT22;7770;52.158;5.372;2023-07-16T01:52:45;16.80;99.90
15341;DHT22;7770;52.158;5.372;2023-07-16T01:55:31;16.80;99.90
15341;DHT22;7770;52.158;5.372;2023-07-16T01:58:17;16.80;99.90
15341;DHT22;7770;52.158;5.372;2023-07-16T02:01:03;16.80;99.90
15341;DHT22;7770;52.158;5.372;2023-07-16T02:03:49;16.80;99.90
15341;DHT22;7770;52.158;5.372;2023-07-16T02:06:35;16.80;99.90
15341;DHT22;7770;52.158;5.372;2023-07-16T02:09:21;16.90;99.90
15341;DHT22;7770;52.158;5.372;2023-07-16T02:12:08;16.90;99.90
15341;DHT22;7770;52.158;5.372;2023-07-16T02:14:53;16.80;99.90
15341;DHT22;7770;52.158;5.372;2023-07-16T02:17:39;16.80;99.90
15341;DHT22;7770;52.158;5.372;2023-07-16T02:20:25;16.80;99.90
15341;DHT22;7770;52.158;5.372;2023-07-16T02:23:11;16.80;99.90
15341;DHT22;7770;52.158;5.372;2023-07-16T02:25:58;16.80;99.90
15341;DHT22;7770;52.158;5.372;2023-07-16T02:28:43;16.80;99.90
15341;DHT22;7770;52.158;5.372;2023-07-16T02:31:29;16.80;99.90
15341;DHT22;7770;52.158;5.372;2023-07-16T02:34:15;16.80;99.90
15341;DHT22;7770;52.158;5.372;2023-07-16T02:37:02;16.80;99.90
15341;DHT22;7770;52.158;5.372;2023-07-16T02:39:48;16.80;99.90
15341;DHT22;7770;52.158;5.372;2023-07-16T02:42:34;16.80;99.90
15341;DHT22;7770;52.158;5.372;2023-07-16T02:45:20;16.70;99.90
15341;DHT22;7770;52.158;5.372;2023-07-16T02:48:06;16.80;99.90
15341;DHT22;7770;52.158;5.372;2023-07-16T02:50:52;16.90;99.90
15341;DHT22;7770;52.158;5.372;2023-07-16T02:53:38;17.00;99.90
15341;DHT22;7770;52.158;5.372;2023-07-16T02:56:24;16.90;99.90
15341;DHT22;7770;52.158;5.372;2023-07-16T02:59:10;16.90;99.90
15341;DHT22;7770;52.158;5.372;2023-07-16T03:01:56;16.70;99.90
15341;DHT22;7770;52.158;5.372;2023-07-16T03:04:42;16.80;99.90
15341;DHT22;7770;52.158;5.372;2023-07-16T03:07:28;16.70;99.90
15341;DHT22;7770;52.158;5.372;2023-07-16T03:10:15;16.80;99.90
15341;DHT22;7770;52.158;5.372;2023-07-16T03:13:00;16.70;99.90
15341;DHT22;7770;52.158;5.372;2023-07-16T03:15:46;16.60;99.90
15341;DHT22;7770;52.158;5.372;2023-07-16T03:18:32;16.60;99.90
15341;DHT22;7770;52.158;5.372;2023-07-16T03:21:18;16.60;99.90
15341;DHT22;7770;52.158;5.372;2023-07-16T03:24:05;16.60;99.90
15341;DHT22;7770;52.158;5.372;2023-07-16T03:26:51;16.50;99.90
15341;DHT22;7770;52.158;5.372;2023-07-16T03:29:37;16.50;99.90
15341;DHT22;7770;52.158;5.372;2023-07-16T03:32:23;16.50;99.90
15341;DHT22;7770;52.158;5.372;2023-07-16T03:35:09;16.50;99.90
15341;DHT22;7770;52.158;5.372;2023-07-16T03:37:55;16.60;99.90
15341;DHT22;7770;52.158;5.372;2023-07-16T03:40:47;16.50;99.90
15341;DHT22;7770;52.158;5.372;2023-07-16T03:43:34;16.50;99.90
15341;DHT22;7770;52.158;5.372;2023-07-16T03:46:20;16.50;99.90
15341;DHT22;7770;52.158;5.372;2023-07-16T03:49:09;16.50;99.90
15341;DHT22;7770;52.158;5.372;2023-07-16T03:51:55;16.50;99.90
15341;DHT22;7770;52.158;5.372;2023-07-16T03:54:41;16.60;99.90
15341;DHT22;7770;52.158;5.372;2023-07-16T03:57:30;16.60;99.90
15341;DHT22;7770;52.158;5.372;2023-07-16T04:00:16;16.60;99.90
15341;DHT22;7770;52.158;5.372;2023-07-16T04:03:02;16.70;99.90
15341;DHT22;7770;52.158;5.372;2023-07-16T04:05:48;16.70;99.90
15341;DHT22;7770;52.158;5.372;2023-07-16T04:08:34;16.70;99.90
15341;DHT22;7770;52.158;5.372;2023-07-16T04:11:21;16.60;99.90
15341;DHT22;7770;52.158;5.372;2023-07-16T04:14:07;16.60;99.90
15341;DHT22;7770;52.158;5.372;2023-07-16T04:16:52;16.70;99.90
15341;DHT22;7770;52.158;5.372;2023-07-16T04:19:39;16.70;99.90
15341;DHT22;7770;52.158;5.372;2023-07-16T04:22:25;16.70;99.90
15341;DHT22;7770;52.158;5.372;2023-07-16T04:25:10;16.70;99.90
15341;DHT22;7770;52.158;5.372;2023-07-16T04:27:56;16.70;99.90
15341;DHT22;7770;52.158;5.372;2023-07-16T04:30:42;16.70;99.90
15341;DHT22;7770;52.158;5.372;2023-07-16T04:33:29;16.70;99.90
15341;DHT22;7770;52.158;5.372;2023-07-16T04:36:15;16.70;99.90
15341;DHT22;7770;52.158;5.372;2023-07-16T04:39:02;16.80;99.90
15341;DHT22;7770;52.158;5.372;2023-07-16T04:41:48;16.80;99.90
15341;DHT22;7770;52.158;5.372;2023-07-16T04:44:34;16.80;99.90
15341;DHT22;7770;52.158;5.372;2023-07-16T04:47:20;16.90;99.90
15341;DHT22;7770;52.158;5.372;2023-07-16T04:50:06;16.90;99.90
15341;DHT22;7770;52.158;5.372;2023-07-16T04:52:52;17.00;99.90
15341;DHT22;7770;52.158;5.372;2023-07-16T04:55:39;17.00;99.90
15341;DHT22;7770;52.158;5.372;2023-07-16T04:58:25;17.00;99.90
15341;DHT22;7770;52.158;5.372;2023-07-16T05:01:11;17.10;99.90
15341;DHT22;7770;52.158;5.372;2023-07-16T05:03:57;17.20;99.90
15341;DHT22;7770;52.158;5.372;2023-07-16T05:06:43;17.20;99.90
15341;DHT22;7770;52.158;5.372;2023-07-16T05:09:30;17.40;99.90
15341;DHT22;7770;52.158;5.372;2023-07-16T05:12:16;17.40;99.90
15341;DHT22;7770;52.158;5.372;2023-07-16T05:15:02;17.40;99.90
15341;DHT22;7770;52.158;5.372;2023-07-16T05:17:48;17.50;99.90
15341;DHT22;7770;52.158;5.372;2023-07-16T05:20:34;17.40;99.90
15341;DHT22;7770;52.158;5.372;2023-07-16T05:23:20;17.50;99.90
15341;DHT22;7770;52.158;5.372;2023-07-16T05:26:06;17.60;99.90
15341;DHT22;7770;52.158;5.372;2023-07-16T05:28:52;18.20;99.90
15341;DHT22;7770;52.158;5.372;2023-07-16T05:31:38;20.00;99.90
15341;DHT22;7770;52.158;5.372;2023-07-16T05:34:24;21.50;99.90
15341;DHT22;7770;52.158;5.372;2023-07-16T05:37:11;22.30;99.90
15341;DHT22;7770;52.158;5.372;2023-07-16T05:39:57;23.10;99.90
15341;DHT22;7770;52.158;5.372;2023-07-16T05:42:43;23.40;99.90
15341;DHT22;7770;52.158;5.372;2023-07-16T05:45:29;24.00;99.90
15341;DHT22;7770;52.158;5.372;2023-07-16T05:48:15;24.60;98.80
15341;DHT22;7770;52.158;5.372;2023-07-16T05:51:01;24.70;97.80
15341;DHT22;7770;52.158;5.372;2023-07-16T05:53:47;24.50;98.00
15341;DHT22;7770;52.158;5.372;2023-07-16T05:56:33;24.60;97.60
15341;DHT22;7770;52.158;5.372;2023-07-16T05:59:19;24.20;98.20
15341;DHT22;7770;52.158;5.372;2023-07-16T06:02:06;24.60;97.60
15341;DHT22;7770;52.158;5.372;2023-07-16T06:04:52;24.20;98.40
15341;DHT22;7770;52.158;5.372;2023-07-16T06:07:38;24.20;98.00
15341;DHT22;7770;52.158;5.372;2023-07-16T06:10:24;24.40;97.90
15341;DHT22;7770;52.158;5.372;2023-07-16T06:13:10;23.80;98.30
15341;DHT22;7770;52.158;5.372;2023-07-16T06:15:56;22.10;99.90
15341;DHT22;7770;52.158;5.372;2023-07-16T06:18:42;21.00;99.90
15341;DHT22;7770;52.158;5.372;2023-07-16T06:21:28;20.50;99.90
15341;DHT22;7770;52.158;5.372;2023-07-16T06:24:14;20.50;99.90
15341;DHT22;7770;52.158;5.372;2023-07-16T06:27:00;20.50;99.90
15341;DHT22;7770;52.158;5.372;2023-07-16T06:29:46;20.90;99.90
15341;DHT22;7770;52.158;5.372;2023-07-16T06:32:32;21.10;99.90
15341;DHT22;7770;52.158;5.372;2023-07-16T06:35:18;20.60;99.90
15341;DHT22;7770;52.158;5.372;2023-07-16T06:38:04;20.40;99.90
15341;DHT22;7770;52.158;5.372;2023-07-16T06:40:51;19.90;99.90
15341;DHT22;7770;52.158;5.372;2023-07-16T06:43:37;19.90;99.90
15341;DHT22;7770;52.158;5.372;2023-07-16T06:46:23;20.00;99.90
15341;DHT22;7770;52.158;5.372;2023-07-16T06:49:09;19.70;99.90
15341;DHT22;7770;52.158;5.372;2023-07-16T06:51:55;19.90;99.90
15341;DHT22;7770;52.158;5.372;2023-07-16T06:54:41;20.00;99.90
15341;DHT22;7770;52.158;5.372;2023-07-16T06:57:28;20.20;99.90
15341;DHT22;7770;52.158;5.372;2023-07-16T07:00:15;20.20;99.90
15341;DHT22;7770;52.158;5.372;2023-07-16T07:03:01;20.10;99.90
15341;DHT22;7770;52.158;5.372;2023-07-16T07:05:47;20.10;99.90
15341;DHT22;7770;52.158;5.372;2023-07-16T07:08:33;20.10;99.90
15341;DHT22;7770;52.158;5.372;2023-07-16T07:11:19;20.30;99.90
15341;DHT22;7770;52.158;5.372;2023-07-16T07:14:05;20.30;99.90
15341;DHT22;7770;52.158;5.372;2023-07-16T07:16:51;20.70;99.90
15341;DHT22;7770;52.158;5.372;2023-07-16T07:19:37;20.80;99.90
15341;DHT22;7770;52.158;5.372;2023-07-16T07:22:23;21.20;99.90
15341;DHT22;7770;52.158;5.372;2023-07-16T07:25:09;21.10;99.90
15341;DHT22;7770;52.158;5.372;2023-07-16T07:27:55;21.30;99.90
15341;DHT22;7770;52.158;5.372;2023-07-16T07:30:41;21.20;99.90
15341;DHT22;7770;52.158;5.372;2023-07-16T07:33:27;21.50;99.90
15341;DHT22;7770;52.158;5.372;2023-07-16T07:36:13;21.90;99.90
15341;DHT22;7770;52.158;5.372;2023-07-16T07:38:59;22.60;99.90
15341;DHT22;7770;52.158;5.372;2023-07-16T07:41:45;23.30;99.90
15341;DHT22;7770;52.158;5.372;2023-07-16T07:44:32;23.90;99.90
15341;DHT22;7770;52.158;5.372;2023-07-16T07:47:18;24.80;99.00
15341;DHT22;7770;52.158;5.372;2023-07-16T07:50:04;26.10;97.80
15341;DHT22;7770;52.158;5.372;2023-07-16T07:52:51;24.90;98.10
15341;DHT22;7770;52.158;5.372;2023-07-16T07:55:36;23.40;99.90
15341;DHT22;7770;52.158;5.372;2023-07-16T07:58:23;22.30;99.90
15341;DHT22;7770;52.158;5.372;2023-07-16T08:01:09;21.80;99.90
15341;DHT22;7770;52.158;5.372;2023-07-16T08:03:55;21.30;99.90
15341;DHT22;7770;52.158;5.372;2023-07-16T08:06:41;21.20;99.90
15341;DHT22;7770;52.158;5.372;2023-07-16T08:09:27;22.20;99.90
15341;DHT22;7770;52.158;5.372;2023-07-16T08:12:14;22.80;99.90
15341;DHT22;7770;52.158;5.372;2023-07-16T08:15:00;24.20;99.90
15341;DHT22;7770;52.158;5.372;2023-07-16T08:17:46;25.00;98.70
15341;DHT22;7770;52.158;5.372;2023-07-16T08:20:32;26.00;98.00
15341;DHT22;7770;52.158;5.372;2023-07-16T08:23:18;26.20;97.40
15341;DHT22;7770;52.158;5.372;2023-07-16T08:26:04;25.40;97.70
15341;DHT22;7770;52.158;5.372;2023-07-16T08:28:50;24.50;98.90
15341;DHT22;7770;52.158;5.372;2023-07-16T08:31:36;25.00;98.60
15341;DHT22;7770;52.158;5.372;2023-07-16T08:34:22;27.20;96.70
15341;DHT22;7770;52.158;5.372;2023-07-16T08:37:08;29.10;94.60
15341;DHT22;7770;52.158;5.372;2023-07-16T08:39:54;27.20;95.30
15341;DHT22;7770;52.158;5.372;2023-07-16T08:42:40;25.00;97.70
15341;DHT22;7770;52.158;5.372;2023-07-16T08:45:28;23.90;99.10
15341;DHT22;7770;52.158;5.372;2023-07-16T08:48:17;23.70;99.90
15341;DHT22;7770;52.158;5.372;2023-07-16T08:51:04;22.60;99.90
15341;DHT22;7770;52.158;5.372;2023-07-16T08:53:52;22.40;99.90
15341;DHT22;7770;52.158;5.372;2023-07-16T08:56:38;22.30;99.90
15341;DHT22;7770;52.158;5.372;2023-07-16T08:59:26;23.10;99.90
15341;DHT22;7770;52.158;5.372;2023-07-16T09:02:13;24.70;99.40
15341;DHT22;7770;52.158;5.372;2023-07-16T09:04:59;26.40;97.20
15341;DHT22;7770;52.158;5.372;2023-07-16T09:07:46;27.40;95.90
15341;DHT22;7770;52.158;5.372;2023-07-16T09:10:32;27.00;96.30
15341;DHT22;7770;52.158;5.372;2023-07-16T09:13:18;26.00;96.90
15341;DHT22;7770;52.158;5.372;2023-07-16T09:16:04;26.70;96.60
15341;DHT22;7770;52.158;5.372;2023-07-16T09:18:51;26.20;96.50
15341;DHT22;7770;52.158;5.372;2023-07-16T09:21:37;25.90;96.80
15341;DHT22;7770;52.158;5.372;2023-07-16T09:24:23;24.80;97.80
15341;DHT22;7770;52.158;5.372;2023-07-16T09:27:11;23.80;99.40
15341;DHT22;7770;52.158;5.372;2023-07-16T09:29:57;22.60;99.90
15341;DHT22;7770;52.158;5.372;2023-07-16T09:32:47;22.00;99.90
15341;DHT22;7770;52.158;5.372;2023-07-16T09:35:35;21.90;99.90
15341;DHT22;7770;52.158;5.372;2023-07-16T09:38:22;22.20;99.90
15341;DHT22;7770;52.158;5.372;2023-07-16T09:41:09;23.00;99.90
15341;DHT22;7770;52.158;5.372;2023-07-16T09:43:55;23.70;99.90
15341;DHT22;7770;52.158;5.372;2023-07-16T09:46:42;23.80;99.60
15341;DHT22;7770;52.158;5.372;2023-07-16T09:49:29;23.40;99.90
15341;DHT22;7770;52.158;5.372;2023-07-16T09:52:16;23.00;99.90
15341;DHT22;7770;52.158;5.372;2023-07-16T09:55:03;22.80;99.90
15341;DHT22;7770;52.158;5.372;2023-07-16T09:57:52;23.10;99.90
15341;DHT22;7770;52.158;5.372;2023-07-16T10:00:41;23.20;99.90
15341;DHT22;7770;52.158;5.372;2023-07-16T10:03:27;23.30;99.90
15341;DHT22;7770;52.158;5.372;2023-07-16T10:06:13;23.20;99.90
15341;DHT22;7770;52.158;5.372;2023-07-16T10:08:59;22.60;99.90
15341;DHT22;7770;52.158;5.372;2023-07-16T10:11:45;22.80;99.90
15341;DHT22;7770;52.158;5.372;2023-07-16T10:14:39;23.90;99.90
15341;DHT22;7770;52.158;5.372;2023-07-16T10:17:31;24.70;98.90
15341;DHT22;7770;52.158;5.372;2023-07-16T10:20:36;24.90;98.90
15341;DHT22;7770;52.158;5.372;2023-07-16T10:23:37;25.10;98.60
15341;DHT22;7770;52.158;5.372;2023-07-16T10:26:28;24.90;97.70
15341;DHT22;7770;52.158;5.372;2023-07-16T10:29:15;23.60;99.80
15341;DHT22;7770;52.158;5.372;2023-07-16T10:32:01;22.80;99.90
15341;DHT22;7770;52.158;5.372;2023-07-16T10:34:48;22.10;99.90
15341;DHT22;7770;52.158;5.372;2023-07-16T10:37:34;21.90;99.90
15341;DHT22;7770;52.158;5.372;2023-07-16T10:40:20;21.90;99.90
15341;DHT22;7770;52.158;5.372;2023-07-16T10:43:06;22.00;99.90
15341;DHT22;7770;52.158;5.372;2023-07-16T10:45:52;22.30;99.90
15341;DHT22;7770;52.158;5.372;2023-07-16T10:48:46;22.60;99.90
15341;DHT22;7770;52.158;5.372;2023-07-16T10:51:33;23.10;99.90
15341;DHT22;7770;52.158;5.372;2023-07-16T10:54:20;23.10;99.90
15341;DHT22;7770;52.158;5.372;2023-07-16T10:57:06;22.90;99.90
15341;DHT22;7770;52.158;5.372;2023-07-16T10:59:53;23.00;99.90
15341;DHT22;7770;52.158;5.372;2023-07-16T11:02:40;23.20;99.90
15341;DHT22;7770;52.158;5.372;2023-07-16T11:05:26;22.80;99.90
15341;DHT22;7770;52.158;5.372;2023-07-16T11:08:24;23.00;99.90
15341;DHT22;7770;52.158;5.372;2023-07-16T11:11:10;23.10;99.90
15341;DHT22;7770;52.158;5.372;2023-07-16T11:13:56;24.40;99.90
15341;DHT22;7770;52.158;5.372;2023-07-16T11:16:42;24.80;99.30
15341;DHT22;7770;52.158;5.372;2023-07-16T11:19:28;25.00;99.10
15341;DHT22;7770;52.158;5.372;2023-07-16T11:22:16;24.80;98.70
15341;DHT22;7770;52.158;5.372;2023-07-16T11:25:03;24.40;99.00
15341;DHT22;7770;52.158;5.372;2023-07-16T11:27:54;24.30;99.90
15341;DHT22;7770;52.158;5.372;2023-07-16T11:30:41;24.80;99.40
15341;DHT22;7770;52.158;5.372;2023-07-16T11:33:35;25.00;99.50
15341;DHT22;7770;52.158;5.372;2023-07-16T11:36:21;25.10;98.70
15341;DHT22;7770;52.158;5.372;2023-07-16T11:39:07;25.20;98.70
15341;DHT22;7770;52.158;5.372;2023-07-16T11:41:56;25.20;98.60
15341;DHT22;7770;52.158;5.372;2023-07-16T11:44:43;25.30;98.40
15341;DHT22;7770;52.158;5.372;2023-07-16T11:47:34;24.90;99.20
15341;DHT22;7770;52.158;5.372;2023-07-16T11:50:20;25.10;99.10
15341;DHT22;7770;52.158;5.372;2023-07-16T11:53:06;25.20;97.90
15341;DHT22;7770;52.158;5.372;2023-07-16T11:55:52;24.40;98.10
15341;DHT22;7770;52.158;5.372;2023-07-16T11:58:38;23.90;99.10
15341;DHT22;7770;52.158;5.372;2023-07-16T12:01:24;24.30;98.60
15341;DHT22;7770;52.158;5.372;2023-07-16T12:04:10;24.00;98.40
15341;DHT22;7770;52.158;5.372;2023-07-16T12:06:56;23.50;98.30
15341;DHT22;7770;52.158;5.372;2023-07-16T12:09:42;23.90;97.80
15341;DHT22;7770;52.158;5.372;2023-07-16T12:12:28;24.20;97.70
15341;DHT22;7770;52.158;5.372;2023-07-16T12:15:14;24.80;96.80
15341;DHT22;7770;52.158;5.372;2023-07-16T12:18:00;25.20;95.90
15341;DHT22;7770;52.158;5.372;2023-07-16T12:20:46;25.50;96.00
15341;DHT22;7770;52.158;5.372;2023-07-16T12:23:32;25.50;95.70
15341;DHT22;7770;52.158;5.372;2023-07-16T12:26:18;25.30;95.90
15341;DHT22;7770;52.158;5.372;2023-07-16T12:29:04;25.70;96.00
15341;DHT22;7770;52.158;5.372;2023-07-16T12:31:50;25.10;96.20
15341;DHT22;7770;52.158;5.372;2023-07-16T12:34:36;24.90;96.10
15341;DHT22;7770;52.158;5.372;2023-07-16T12:37:22;24.30;96.60
15341;DHT22;7770;52.158;5.372;2023-07-16T12:40:08;24.50;97.00
15341;DHT22;7770;52.158;5.372;2023-07-16T12:42:55;24.70;96.60
15341;DHT22;7770;52.158;5.372;2023-07-16T12:45:40;24.40;97.30
15341;DHT22;7770;52.158;5.372;2023-07-16T12:48:26;25.10;96.80
15341;DHT22;7770;52.158;5.372;2023-07-16T12:51:12;25.20;96.50
15341;DHT22;7770;52.158;5.372;2023-07-16T12:53:58;25.60;96.60
15341;DHT22;7770;52.158;5.372;2023-07-16T12:56:46;26.00;96.50
15341;DHT22;7770;52.158;5.372;2023-07-16T12:59:32;25.80;96.00
15341;DHT22;7770;52.158;5.372;2023-07-16T13:02:18;25.20;96.90
15341;DHT22;7770;52.158;5.372;2023-07-16T13:05:04;25.10;96.50
15341;DHT22;7770;52.158;5.372;2023-07-16T13:07:50;24.90;97.00
15341;DHT22;7770;52.158;5.372;2023-07-16T13:10:36;24.80;96.70
15341;DHT22;7770;52.158;5.372;2023-07-16T13:13:22;25.10;96.60
15341;DHT22;7770;52.158;5.372;2023-07-16T13:16:08;25.20;96.30
15341;DHT22;7770;52.158;5.372;2023-07-16T13:18:55;24.80;96.60
15341;DHT22;7770;52.158;5.372;2023-07-16T13:21:41;24.50;97.00
15341;DHT22;7770;52.158;5.372;2023-07-16T13:24:27;24.10;97.40
15341;DHT22;7770;52.158;5.372;2023-07-16T13:27:21;24.30;97.20
15341;DHT22;7770;52.158;5.372;2023-07-16T13:30:10;24.20;97.20
15341;DHT22;7770;52.158;5.372;2023-07-16T13:32:57;23.70;97.80
15341;DHT22;7770;52.158;5.372;2023-07-16T13:35:43;23.70;98.20
15341;DHT22;7770;52.158;5.372;2023-07-16T13:38:29;23.70;98.10
15341;DHT22;7770;52.158;5.372;2023-07-16T13:41:17;23.60;98.10
15341;DHT22;7770;52.158;5.372;2023-07-16T13:44:04;23.80;98.00
15341;DHT22;7770;52.158;5.372;2023-07-16T13:46:50;23.70;97.60
15341;DHT22;7770;52.158;5.372;2023-07-16T13:49:36;24.20;97.20
15341;DHT22;7770;52.158;5.372;2023-07-16T13:52:22;24.30;97.30
15341;DHT22;7770;52.158;5.372;2023-07-16T13:55:08;24.50;97.00
15341;DHT22;7770;52.158;5.372;2023-07-16T13:57:54;24.80;96.90
15341;DHT22;7770;52.158;5.372;2023-07-16T14:00:41;25.00;96.80
15341;DHT22;7770;52.158;5.372;2023-07-16T14:03:27;25.10;97.00
15341;DHT22;7770;52.158;5.372;2023-07-16T14:06:13;25.20;96.10
15341;DHT22;7770;52.158;5.372;2023-07-16T14:09:00;25.20;95.60
15341;DHT22;7770;52.158;5.372;2023-07-16T14:11:46;25.00;95.80
15341;DHT22;7770;52.158;5.372;2023-07-16T14:14:33;25.20;96.50
15341;DHT22;7770;52.158;5.372;2023-07-16T14:17:20;25.20;96.00
15341;DHT22;7770;52.158;5.372;2023-07-16T14:20:06;24.70;95.80
15341;DHT22;7770;52.158;5.372;2023-07-16T14:22:52;24.40;96.10
15341;DHT22;7770;52.158;5.372;2023-07-16T14:25:38;24.40;96.70
15341;DHT22;7770;52.158;5.372;2023-07-16T14:28:25;24.80;96.00
15341;DHT22;7770;52.158;5.372;2023-07-16T14:31:10;25.00;96.20
15341;DHT22;7770;52.158;5.372;2023-07-16T14:33:57;24.60;96.10
15341;DHT22;7770;52.158;5.372;2023-07-16T14:36:43;24.10;96.60
15341;DHT22;7770;52.158;5.372;2023-07-16T14:39:29;23.80;96.90
15341;DHT22;7770;52.158;5.372;2023-07-16T14:42:15;23.90;97.20
15341;DHT22;7770;52.158;5.372;2023-07-16T14:45:01;24.00;97.50
15341;DHT22;7770;52.158;5.372;2023-07-16T14:47:48;24.20;97.30
15341;DHT22;7770;52.158;5.372;2023-07-16T14:50:34;24.00;96.90
15341;DHT22;7770;52.158;5.372;2023-07-16T14:53:20;24.00;97.50
15341;DHT22;7770;52.158;5.372;2023-07-16T14:56:06;24.20;97.50
15341;DHT22;7770;52.158;5.372;2023-07-16T14:58:52;24.10;96.80
15341;DHT22;7770;52.158;5.372;2023-07-16T15:01:38;23.90;97.20
15341;DHT22;7770;52.158;5.372;2023-07-16T15:04:24;23.90;97.50
15341;DHT22;7770;52.158;5.372;2023-07-16T15:07:10;23.80;97.50
15341;DHT22;7770;52.158;5.372;2023-07-16T15:09:56;23.80;97.40
15341;DHT22;7770;52.158;5.372;2023-07-16T15:12:43;23.70;97.70
15341;DHT22;7770;52.158;5.372;2023-07-16T15:15:29;24.00;97.40
15341;DHT22;7770;52.158;5.372;2023-07-16T15:18:16;24.20;97.30
15341;DHT22;7770;52.158;5.372;2023-07-16T15:21:02;24.10;97.20
15341;DHT22;7770;52.158;5.372;2023-07-16T15:23:48;24.10;97.50
15341;DHT22;7770;52.158;5.372;2023-07-16T15:26:34;24.10;97.20
15341;DHT22;7770;52.158;5.372;2023-07-16T15:29:20;24.20;97.40
15341;DHT22;7770;52.158;5.372;2023-07-16T15:32:06;24.40;96.90
15341;DHT22;7770;52.158;5.372;2023-07-16T15:34:53;24.60;96.80
15341;DHT22;7770;52.158;5.372;2023-07-16T15:37:39;24.80;96.90
15341;DHT22;7770;52.158;5.372;2023-07-16T15:40:25;24.80;96.60
15341;DHT22;7770;52.158;5.372;2023-07-16T15:43:11;24.50;96.90
15341;DHT22;7770;52.158;5.372;2023-07-16T15:45:57;24.50;97.20
15341;DHT22;7770;52.158;5.372;2023-07-16T15:48:44;24.60;96.80
15341;DHT22;7770;52.158;5.372;2023-07-16T15:51:31;24.50;96.70
15341;DHT22;7770;52.158;5.372;2023-07-16T15:54:17;24.20;97.30
15341;DHT22;7770;52.158;5.372;2023-07-16T15:57:03;24.30;96.90
15341;DHT22;7770;52.158;5.372;2023-07-16T15:59:49;24.10;96.90
15341;DHT22;7770;52.158;5.372;2023-07-16T16:02:35;23.80;96.90
15341;DHT22;7770;52.158;5.372;2023-07-16T16:05:22;23.40;97.50
15341;DHT22;7770;52.158;5.372;2023-07-16T16:08:18;23.20;97.40
15341;DHT22;7770;52.158;5.372;2023-07-16T16:11:04;23.00;97.60
15341;DHT22;7770;52.158;5.372;2023-07-16T16:13:50;23.10;97.70
15341;DHT22;7770;52.158;5.372;2023-07-16T16:16:39;23.30;97.60
15341;DHT22;7770;52.158;5.372;2023-07-16T16:19:25;23.50;97.40
15341;DHT22;7770;52.158;5.372;2023-07-16T16:22:11;23.60;97.30
15341;DHT22;7770;52.158;5.372;2023-07-16T16:24:57;23.50;97.30
15341;DHT22;7770;52.158;5.372;2023-07-16T16:27:46;23.20;97.40
15341;DHT22;7770;52.158;5.372;2023-07-16T16:30:33;23.10;97.60
15341;DHT22;7770;52.158;5.372;2023-07-16T16:33:20;23.00;97.80
15341;DHT22;7770;52.158;5.372;2023-07-16T16:36:09;22.90;98.30
15341;DHT22;7770;52.158;5.372;2023-07-16T16:38:59;22.90;98.30
15341;DHT22;7770;52.158;5.372;2023-07-16T16:41:45;22.90;98.50
15341;DHT22;7770;52.158;5.372;2023-07-16T16:44:33;22.90;98.60
15341;DHT22;7770;52.158;5.372;2023-07-16T16:47:19;23.00;98.40
15341;DHT22;7770;52.158;5.372;2023-07-16T16:50:06;23.00;98.30
15341;DHT22;7770;52.158;5.372;2023-07-16T16:52:52;23.00;98.30
15341;DHT22;7770;52.158;5.372;2023-07-16T16:55:44;23.00;98.20
15341;DHT22;7770;52.158;5.372;2023-07-16T16:58:30;23.30;98.40
15341;DHT22;7770;52.158;5.372;2023-07-16T17:01:16;23.20;98.20
15341;DHT22;7770;52.158;5.372;2023-07-16T17:04:03;23.10;99.90
15341;DHT22;7770;52.158;5.372;2023-07-16T17:06:50;22.60;99.90
15341;DHT22;7770;52.158;5.372;2023-07-16T17:09:38;22.10;99.90
15341;DHT22;7770;52.158;5.372;2023-07-16T17:12:26;21.70;99.90
15341;DHT22;7770;52.158;5.372;2023-07-16T17:15:12;21.30;99.90
15341;DHT22;7770;52.158;5.372;2023-07-16T17:17:58;21.30;99.90
15341;DHT22;7770;52.158;5.372;2023-07-16T17:20:45;21.30;99.90
15341;DHT22;7770;52.158;5.372;2023-07-16T17:23:31;21.30;99.90
15341;DHT22;7770;52.158;5.372;2023-07-16T17:26:17;21.30;99.90
15341;DHT22;7770;52.158;5.372;2023-07-16T17:29:03;21.30;99.90
15341;DHT22;7770;52.158;5.372;2023-07-16T17:31:49;21.40;99.90
15341;DHT22;7770;52.158;5.372;2023-07-16T17:34:35;21.30;99.90
15341;DHT22;7770;52.158;5.372;2023-07-16T17:37:22;21.30;99.90
15341;DHT22;7770;52.158;5.372;2023-07-16T17:40:09;21.40;99.90
15341;DHT22;7770;52.158;5.372;2023-07-16T17:42:57;21.30;99.90
15341;DHT22;7770;52.158;5.372;2023-07-16T17:45:44;21.30;99.90
15341;DHT22;7770;52.158;5.372;2023-07-16T17:48:30;21.30;99.90
15341;DHT22;7770;52.158;5.372;2023-07-16T17:51:16;21.30;99.90
15341;DHT22;7770;52.158;5.372;2023-07-16T17:54:02;21.30;99.90
15341;DHT22;7770;52.158;5.372;2023-07-16T17:56:51;21.30;99.90